Аэропорт: Ленкорань. Ленкорань

ICAO: UBBL

METAR:
Информация по данной станции не доступна
METAR:
2021-04-21 17:25:00
TAF UBBL 211725Z 2118/2218 15005KT 8000 SCT045 BKN100 TX20/2210Z TN10/2202Z TEMPO 2118/2124 -TSRA BKN040CB TEMPO 2200/2203 3000 BR SCT012 BECMG 2203/2205 04008KT